• Join FlightAware (Why Join?)
  • Login
  • US Flag 
09:06AM EDT


 

Airport Tracker/Info


-or-


 

Live Flight TrackerFlight Track Log ✈ GEC8170 ✈ 14-Jul-2013 ✈ EDDF / FRA - KATL

Flight Track Log - Related Links

Times and Time Zones

All times are in EDT time to prevent confusion due to time zone crossing. See the GEC8170 flight status page for this flight to view local times or setup timezone preferences in your user account.

Time Position Orientation Groundspeed Altitude Reporting Facility
EDT Latitude Longitude Course Direction KTS MPH feet Rate Location/Type
06:50PM 54.2725 -16.9980 295° West  Level Estimated
06:51PM 54.2832 -17.2238 275° West  Level Estimated
06:52PM 54.2936 -17.4497 275° West  Level Estimated
06:53PM 54.3035 -17.6758 274° West  Level Estimated
06:54PM 54.3130 -17.9019 274° West  Level Estimated
06:55PM 54.3221 -18.1281 274° West  Level Estimated
06:56PM 54.3307 -18.3545 274° West  Level Estimated
06:57PM 54.3390 -18.5809 274° West  Level Estimated
06:58PM 54.3468 -18.8074 273° West  Level Estimated
06:59PM 54.3542 -19.0340 273° West  Level Estimated
07:00PM 54.3611 -19.2607 273° West  Level Estimated
07:01PM 54.3677 -19.4875 273° West  Level Estimated
07:02PM 54.3738 -19.7143 273° West  Level Estimated
07:03PM 54.3795 -19.9412 273° West  Level Estimated
07:04PM 54.3847 -20.1682 272° West  Level Estimated
07:05PM 54.3895 -20.3952 272° West  Level Estimated
07:06PM 54.3940 -20.6222 272° West  Level Estimated
07:06PM 51.0000 -20.0000 274° West 481 554 32,000  Level ETMS Enhanced Traffic Management System
07:07PM 54.3979 -20.8493 272° West  Level Estimated
07:08PM 54.4015 -21.0765 272° West  Level Estimated
07:09PM 54.4046 -21.3037 271° West  Level Estimated
07:10PM 54.4073 -21.5309 271° West  Level Estimated
07:11PM 54.4096 -21.7582 271° West  Level Estimated
07:12PM 54.4114 -21.9854 271° West  Level Estimated
07:13PM 51.0541 -21.4866 273° West 481 554 32,000  Level FlightAware Transoceanic
07:14PM 51.0603 -21.6993 273° West 481 554 32,000  Level FlightAware Transoceanic
07:15PM 51.0661 -21.9120 272° West 481 554 32,000  Level FlightAware Transoceanic
07:16PM 51.0715 -22.1247 272° West 481 554 32,000  Level FlightAware Transoceanic
07:17PM 51.0765 -22.3375 272° West 481 554 32,000  Level FlightAware Transoceanic
07:18PM 51.0812 -22.5503 272° West 481 554 32,000  Level FlightAware Transoceanic
07:19PM 51.0854 -22.7632 272° West 481 554 32,000  Level FlightAware Transoceanic
07:20PM 51.0893 -22.9761 272° West 481 554 32,000  Level FlightAware Transoceanic
07:21PM 51.0928 -23.1891 271° West 481 554 32,000  Level FlightAware Transoceanic
07:22PM 51.0959 -23.4021 271° West 481 554 32,000  Level FlightAware Transoceanic
07:23PM 51.0986 -23.6151 271° West 481 554 32,000  Level FlightAware Transoceanic
07:24PM 51.1009 -23.8281 271° West 481 554 32,000  Level FlightAware Transoceanic
07:25PM 51.1029 -24.0411 271° West 481 554 32,000  Level FlightAware Transoceanic
07:26PM 51.1044 -24.2542 271° West 481 554 32,000  Level FlightAware Transoceanic
07:27PM 51.1056 -24.4673 270° West 481 554 32,000  Level FlightAware Transoceanic
07:28PM 51.1064 -24.6804 270° West 481 554 32,000  Level FlightAware Transoceanic
07:29PM 51.1067 -24.8934 270° West 481 554 32,000  Level FlightAware Transoceanic
07:30PM 51.1067 -25.1066 270° West 481 554 32,000  Level FlightAware Transoceanic
07:31PM 51.1064 -25.3196 270° West 481 554 32,000  Level FlightAware Transoceanic
07:32PM 51.1056 -25.5327 270° West 481 554 32,000  Level FlightAware Transoceanic
07:33PM 51.1044 -25.7458 269° West 481 554 32,000  Level FlightAware Transoceanic
07:34PM 51.1029 -25.9589 269° West 481 554 32,000  Level FlightAware Transoceanic
07:35PM 51.1009 -26.1719 269° West 481 554 32,000  Level FlightAware Transoceanic
07:36PM 51.0986 -26.3849 269° West 481 554 32,000  Level FlightAware Transoceanic
07:37PM 51.0959 -26.5979 269° West 481 554 32,000  Level FlightAware Transoceanic
07:38PM 51.0928 -26.8109 269° West 481 554 32,000  Level FlightAware Transoceanic
07:39PM 51.0893 -27.0239 268° West 481 554 32,000  Level FlightAware Transoceanic
07:40PM 51.0854 -27.2368 268° West 481 554 32,000  Level FlightAware Transoceanic
07:41PM 51.0812 -27.4497 268° West 481 554 32,000  Level FlightAware Transoceanic
07:42PM 51.0765 -27.6625 268° West 481 554 32,000  Level FlightAware Transoceanic
07:43PM 51.0715 -27.8753 268° West 481 554 32,000  Level FlightAware Transoceanic
07:44PM 51.0661 -28.0880 268° West 481 554 32,000  Level FlightAware Transoceanic
07:45PM 51.0603 -28.3007 267° West 481 554 32,000  Level FlightAware Transoceanic
07:46PM 51.0541 -28.5134 267° West 481 554 32,000  Level FlightAware Transoceanic
07:47PM 51.0475 -28.7260 267° West 481 554 32,000  Level FlightAware Transoceanic
07:48PM 51.0406 -28.9385 267° West 481 554 32,000  Level FlightAware Transoceanic
07:49PM 51.0332 -29.1509 267° West 481 554 32,000  Level FlightAware Transoceanic
07:50PM 51.0255 -29.3633 267° West 481 554 32,000  Level FlightAware Transoceanic
07:51PM 51.0174 -29.5756 266° West 481 554 32,000  Level FlightAware Transoceanic
07:52PM 51.0089 -29.7878 266° West 481 554 32,000  Level FlightAware Transoceanic
07:53PM 51.0001 -29.9976 266° West  Level FlightAware Approximate
07:54PM 50.9912 -30.2073 266° West  Level FlightAware Approximate
07:55PM 51.0086 -30.2049 274° West  Level FlightAware Approximate
07:56PM 51.0170 -30.4147 274° West  Level FlightAware Approximate
07:57PM 51.0251 -30.6246 274° West  Level FlightAware Approximate
07:58PM 51.0327 -30.8346 273° West  Level FlightAware Approximate
07:59PM 51.0400 -31.0447 273° West  Level FlightAware Approximate
08:00PM 51.0469 -31.2548 273° West  Level FlightAware Approximate
08:01PM 51.0535 -31.4649 273° West  Level FlightAware Approximate
08:02PM 51.0596 -31.6751 273° West  Level FlightAware Approximate
08:03PM 51.0654 -31.8854 273° West  Level FlightAware Approximate
08:04PM 51.0708 -32.0957 272° West  Level FlightAware Approximate
08:05PM 51.0758 -32.3061 272° West  Level FlightAware Approximate
08:06PM 51.0805 -32.5165 272° West  Level FlightAware Approximate
08:07PM 51.0848 -32.7270 272° West  Level FlightAware Approximate
08:08PM 51.0886 -32.9375 272° West  Level FlightAware Approximate
08:09PM 51.0922 -33.1480 272° West  Level FlightAware Approximate
08:10PM 51.0953 -33.3586 271° West  Level FlightAware Approximate
08:11PM 51.0981 -33.5692 271° West  Level FlightAware Approximate
08:12PM 51.1004 -33.7798 271° West  Level FlightAware Approximate
08:13PM 51.1025 -33.9904 271° West  Level FlightAware Approximate
08:14PM 51.1041 -34.2010 271° West  Level FlightAware Approximate
08:15PM 51.1053 -34.4117 271° West  Level FlightAware Approximate
08:16PM 51.1062 -34.6224 270° West  Level FlightAware Approximate
08:17PM 51.1067 -34.8330 270° West  Level FlightAware Approximate
08:18PM 51.1068 -35.0437 270° West  Level FlightAware Approximate
08:19PM 51.1065 -35.2544 270° West  Level FlightAware Approximate
08:20PM 51.1059 -35.4651 270° West  Level FlightAware Approximate
08:21PM 51.1049 -35.6757 270° West  Level FlightAware Approximate
08:22PM 51.1035 -35.8864 269° West  Level FlightAware Approximate
08:23PM 51.1017 -36.0970 269° West  Level FlightAware Approximate
08:24PM 51.0995 -36.3077 269° West  Level FlightAware Approximate
08:25PM 51.0970 -36.5182 269° West  Level FlightAware Approximate
08:26PM 51.0941 -36.7288 269° West  Level FlightAware Approximate
08:27PM 51.0908 -36.9394 269° West  Level FlightAware Approximate
08:28PM 51.0871 -37.1499 268° West  Level FlightAware Approximate
08:29PM 51.0830 -37.3604 268° West  Level FlightAware Approximate
08:30PM 51.0786 -37.5708 268° West  Level FlightAware Approximate
08:31PM 51.0738 -37.7812 268° West  Level FlightAware Approximate
08:32PM 51.0686 -37.9916 268° West  Level FlightAware Approximate
08:33PM 51.0630 -38.2019 268° West  Level FlightAware Approximate
08:34PM 51.0571 -38.4121 268° West  Level FlightAware Approximate
08:35PM 51.0508 -38.6223 267° West  Level FlightAware Approximate
08:36PM 51.0441 -38.8324 267° West  Level FlightAware Approximate
08:37PM 51.0370 -39.0425 267° West  Level FlightAware Approximate
08:38PM 51.0296 -39.2525 267° West  Level FlightAware Approximate
08:39PM 51.0218 -39.4625 267° West  Level FlightAware Approximate
08:40PM 51.0136 -39.6723 267° West  Level FlightAware Approximate
08:41PM 51.0050 -39.8821 266° West  Level FlightAware Approximate
08:42PM 50.9865 -40.0895 257° West  Level FlightAware Approximate
08:43PM 50.9554 -40.2937 256° West  Level FlightAware Approximate
08:44PM 50.9240 -40.4976 256° West  Level FlightAware Approximate
08:45PM 50.8922 -40.7012 256° West  Level FlightAware Approximate
08:46PM 50.8601 -40.9046 256° West  Level FlightAware Approximate
08:47PM 50.8276 -41.1077 256° West  Level FlightAware Approximate
08:48PM 50.7947 -41.3104 256° West  Level FlightAware Approximate
08:49PM 50.7615 -41.5129 256° West  Level FlightAware Approximate
08:50PM 50.7280 -41.7151 255° West  Level FlightAware Approximate
08:51PM 50.6941 -41.9171 255° West  Level FlightAware Approximate
08:52PM 50.6598 -42.1187 255° West  Level FlightAware Approximate
08:53PM 50.6252 -42.3200 255° West  Level FlightAware Approximate
08:54PM 50.5903 -42.5210 255° West  Level FlightAware Approximate
08:55PM 50.5550 -42.7218 255° West  Level FlightAware Approximate
08:56PM 50.5194 -42.9222 254° West  Level FlightAware Approximate
08:57PM 50.4834 -43.1223 254° West  Level FlightAware Approximate
08:58PM 50.4471 -43.3222 254° West  Level FlightAware Approximate
08:59PM 50.4104 -43.5217 254° West  Level FlightAware Approximate
09:00PM 50.3734 -43.7209 254° West  Level FlightAware Approximate
09:01PM 50.3361 -43.9198 254° West  Level FlightAware Approximate
09:02PM 50.2984 -44.1183 254° West  Level FlightAware Approximate
09:03PM 50.2604 -44.3166 253° West  Level FlightAware Approximate
09:04PM 50.2220 -44.5145 253° West  Level FlightAware Approximate
09:05PM 50.1833 -44.7122 253° West  Level FlightAware Approximate
09:06PM 50.1443 -44.9095 253° West  Level FlightAware Approximate
09:07PM 50.1050 -45.1064 253° West  Level FlightAware Approximate
09:08PM 50.0653 -45.3031 253° West  Level FlightAware Approximate
09:09PM 50.0253 -45.4994 252° West  Level FlightAware Approximate
09:10PM 49.9849 -45.6954 252° West  Level FlightAware Approximate
09:11PM 49.9442 -45.8911 252° West  Level FlightAware Approximate
09:12PM 49.9032 -46.0864 252° West  Level FlightAware Approximate
09:13PM 49.8619 -46.2814 252° West  Level FlightAware Approximate
09:14PM 49.8202 -46.4761 252° West  Level FlightAware Approximate
09:15PM 49.7782 -46.6704 252° West  Level FlightAware Approximate
09:16PM 49.7359 -46.8644 251° West  Level FlightAware Approximate
09:17PM 49.6933 -47.0581 251° West  Level FlightAware Approximate
09:18PM 49.6503 -47.2514 251° West  Level FlightAware Approximate
09:19PM 49.6070 -47.4444 251° West  Level FlightAware Approximate
09:20PM 49.5634 -47.6370 251° West  Level FlightAware Approximate
09:21PM 49.5195 -47.8293 251° West  Level FlightAware Approximate
09:22PM 49.4753 -48.0213 251° West  Level FlightAware Approximate
09:23PM 49.4307 -48.2129 250° West  Level FlightAware Approximate
09:24PM 49.3859 -48.4041 250° West  Level FlightAware Approximate
09:25PM 49.3407 -48.5950 250° West  Level FlightAware Approximate
09:26PM 49.2952 -48.7855 250° West  Level FlightAware Approximate
09:27PM 49.2494 -48.9757 250° West  Level FlightAware Approximate
09:28PM 49.2033 -49.1656 250° West  Level FlightAware Approximate
09:29PM 49.1568 -49.3550 250° West  Level FlightAware Approximate
09:30PM 49.1101 -49.5442 249° West  Level FlightAware Approximate
09:31PM 49.0630 -49.7329 249° West  Level FlightAware Approximate
09:32PM 49.0157 -49.9213 249° West  Level FlightAware Approximate
09:33PM 48.9744 -50.1119 251° West  Level FlightAware Approximate
09:34PM 48.9307 -50.3020 251° West  Level FlightAware Approximate
09:35PM 48.8866 -50.4918 251° West  Level FlightAware Approximate
09:36PM 48.8422 -50.6812 250° West  Level FlightAware Approximate
09:37PM 48.7975 -50.8703 250° West  Level FlightAware Approximate
09:38PM 48.7530 -51.0593 251° West  Level FlightAware Approximate
09:38PM 48.8920 -50.4890 251° West 482 555 32,500  Level FlightAware
09:39PM 48.7093 -51.2486 251° West  Level FlightAware Approximate
09:39PM 48.8620 -50.6220 251° West 480 552 33,200  Level FlightAware
09:39PM 48.8420 -50.7130 252° West 479 551 33,700 600 Climbing FlightAware
09:40PM 48.8090 -50.8600 251° West 475 547 34,000 180 Climbing FlightAware
09:41PM 48.7760 -51.0050 251° West 475 547 34,000  Level FlightAware
09:41PM 48.7470 -51.1310 251° West 476 548 34,000  Level FlightAware
09:42PM 48.7170 -51.2580 250° West 479 551 34,000  Level FlightAware
09:43PM 48.6830 -51.4030 250° West 478 550 34,000  Level FlightAware
09:43PM 48.6520 -51.5340 250° West 477 549 34,000  Level FlightAware
09:44PM 48.6200 -51.6720 251° West 474 545 34,000  Level FlightAware
09:45PM 48.5890 -51.8000 250° West 475 547 34,000  Level FlightAware
09:45PM 48.5590 -51.9240 250° West 476 548 34,000  Level FlightAware
09:46PM 48.5330 -52.0360 251° West 476 548 34,000  Level FlightAware
09:47PM 48.4980 -52.1780 250° West 476 548 34,000  Level FlightAware
09:47PM 48.4670 -52.3060 250° West 475 547 34,000  Level FlightAware
09:48PM 48.4400 -52.4150 250° West 473 544 34,000  Level FlightAware
09:49PM 48.4100 -52.5410 250° West 474 545 34,000  Level FlightAware
09:49PM 48.3750 -52.6790 249° West 472 543 34,000  Level FlightAware
09:50PM 48.3370 -52.8340 250° West 467 537 34,000  Level FlightAware
09:51PM 48.3090 -52.9460 249° West 464 534 34,000  Level FlightAware
09:52PM 48.2760 -53.0780 249° West 463 533 34,000  Level FlightAware
09:52PM 48.2400 -53.2160 249° West 464 534 34,000  Level FlightAware
09:53PM 48.2100 -53.3360 249° West 466 536 34,000  Level FlightAware
09:54PM 48.1750 -53.4730 249° West 467 537 34,000  Level FlightAware
09:54PM 48.1470 -53.5810 249° West 470 541 34,000  Level FlightAware
09:55PM 48.1150 -53.7030 249° West 472 543 34,000 60 Level FlightAware
09:56PM 48.0820 -53.8310 249° West 474 545 34,100 60 Climbing FlightAware
09:56PM 48.0510 -53.9490 249° West 477 549 34,100 -120 Level FlightAware
09:57PM 48.0180 -54.0730 248° West 476 548 34,000 -120 Descending FlightAware
09:58PM 47.9910 -54.1790 249° West 476 548 34,000  Level FlightAware
09:59PM 47.9390 -54.3720 248° West 476 548 34,000  Level FlightAware
09:59PM 47.9030 -54.5080 248° West 476 548 34,000  Level FlightAware
10:01PM 47.8450 -54.7090 247° West 476 548 34,000  Level FlightAware
10:01PM 47.8090 -54.8560 250° West 475 547 34,000  Level FlightAware
10:02PM 47.7750 -54.9780 248° West 477 549 34,000  Level FlightAware
10:03PM 47.7370 -55.1160 248° West 478 550 34,000  Level FlightAware
10:03PM 47.7030 -55.2390 248° West 481 554 34,000  Level FlightAware
10:04PM 47.6650 -55.3760 248° West 482 555 34,000  Level FlightAware
10:05PM 47.6310 -55.4980 248° West 484 557 34,000  Level FlightAware
10:06PM 47.5930 -55.6340 248° West 485 558 34,000  Level FlightAware
10:06PM 47.5560 -55.7630 247° West 487 560 34,000  Level FlightAware
10:07PM 47.5310 -55.8530 248° West 488 562 34,000  Level FlightAware
10:08PM 47.4700 -56.0650 247° West 491 565 34,000  Level FlightAware
10:09PM 47.4330 -56.1920 247° West 493 567 34,000  Level FlightAware
10:09PM 47.3980 -56.3110 247° West 493 567 34,000  Level FlightAware
10:10PM 47.3700 -56.4060 247° West 493 567 34,000  Level FlightAware
10:11PM 47.3230 -56.5600 246° West 493 567 34,000  Level FlightAware
10:12PM 47.2720 -56.7450 248° West 490 564 34,000  Level FlightAware
10:13PM 47.2130 -56.9380 246° West 494 568 34,000  Level FlightAware
10:13PM 47.1720 -57.0720 246° West 494 568 34,000  Level FlightAware
10:14PM 47.1350 -57.1910 245° Southwest 494 568 34,000  Level FlightAware
10:15PM 47.0940 -57.3250 246° West 495 570 34,000  Level FlightAware
10:16PM 47.0580 -57.4380 245° Southwest 495 570 34,000  Level FlightAware
10:16PM 47.0280 -57.5310 245° Southwest 495 570 34,000  Level FlightAware
10:17PM 46.9790 -57.6880 245° Southwest 493 567 34,000  Level FlightAware
10:18PM 46.9380 -57.8170 245° Southwest 493 567 34,000  Level FlightAware
10:18PM 46.8960 -57.9490 245° Southwest 493 567 34,000  Level FlightAware
10:19PM 46.8540 -58.0800 245° Southwest 493 567 34,000  Level FlightAware
10:20PM 46.8120 -58.2080 244° Southwest 495 570 34,000  Level FlightAware
10:20PM 46.7760 -58.3220 245° Southwest 497 572 34,000  Level FlightAware
10:21PM 46.7370 -58.4420 245° Southwest 498 573 34,000  Level FlightAware
10:22PM 46.6950 -58.5700 244° Southwest 500 575 34,000  Level FlightAware
10:22PM 46.6540 -58.6920 244° Southwest 502 578 34,000  Level FlightAware
10:23PM 46.6140 -58.8130 244° Southwest 502 578 34,000  Level FlightAware
10:24PM 46.5740 -58.9350 245° Southwest 501 577 34,000  Level FlightAware
10:24PM 46.5400 -59.0360 244° Southwest 500 575 34,000  Level FlightAware
10:25PM 46.5000 -59.1560 244° Southwest 500 575 34,000  Level FlightAware
10:26PM 46.4560 -59.2860 244° Southwest 500 575 34,000  Level FlightAware
10:26PM 46.4160 -59.4060 244° Southwest 501 577 34,000  Level FlightAware
10:27PM 46.3710 -59.5360 243° Southwest 501 577 34,000  Level FlightAware
10:28PM 46.3310 -59.6540 244° Southwest 501 577 34,000  Level FlightAware
10:28PM 46.2860 -59.7840 243° Southwest 502 578 34,000  Level FlightAware
10:29PM 46.2450 -59.9050 244° Southwest 503 579 34,000  Level FlightAware
10:30PM 46.1970 -60.0430 243° Southwest 504 580 34,000  Level FlightAware
10:31PM 46.1480 -60.1830 243° Southwest 505 581 34,000  Level FlightAware
10:31PM 46.1020 -60.3140 243° Southwest 505 581 34,000 60 Level FlightAware
10:32PM 46.0650 -60.4190 243° Southwest 506 582 34,100  Climbing FlightAware
10:33PM 46.0220 -60.5410 243° Southwest 505 581 34,000 -120 Descending FlightAware
10:33PM 45.9930 -60.6240 243° Southwest 506 582 34,000  Level FlightAware
10:34PM 45.9530 -60.7370 243° Southwest 506 582 34,000  Level FlightAware
10:35PM 45.9020 -60.8780 243° Southwest 507 583 34,000  Level FlightAware
10:35PM 45.8600 -60.9950 243° Southwest 506 582 34,000  Level FlightAware
10:36PM 45.8170 -61.1140 243° Southwest 506 582 34,000  Level FlightAware
10:37PM 45.7700 -61.2440 243° Southwest 504 580 34,000  Level FlightAware
10:37PM 45.7280 -61.3570 242° Southwest 503 579 34,000  Level FlightAware
10:38PM 45.6940 -61.4490 242° Southwest 503 579 34,000  Level FlightAware
10:39PM 45.6500 -61.5690 242° Southwest 503 579 34,000  Level FlightAware
10:39PM 45.6160 -61.6590 242° Southwest 503 579 34,000  Level FlightAware
10:40PM 45.5710 -61.7810 242° Southwest 503 579 34,000  Level FlightAware
10:41PM 45.5360 -61.8740 242° Southwest 503 579 34,000  Level FlightAware
10:41PM 45.5140 -61.9340 242° Southwest 503 579 34,000  Level FlightAware
10:42PM 45.4670 -62.0610 242° Southwest 503 579 34,000  Level FlightAware
10:43PM 45.4320 -62.1530 242° Southwest 503 579 34,000  Level FlightAware
10:44PM 45.3750 -62.3040 242° Southwest 503 579 34,000  Level FlightAware
10:44PM 45.3410 -62.3960 242° Southwest 503 579 34,000  Level FlightAware
10:45PM 45.3100 -62.4810 243° Southwest 503 579 34,000  Level FlightAware
10:46PM 45.2750 -62.5730 242° Southwest 503 579 34,000  Level FlightAware
10:46PM 45.2420 -62.6620 242° Southwest 503 579 34,000  Level FlightAware
10:47PM 45.1970 -62.7810 242° Southwest 503 579 34,000  Level FlightAware
10:49PM 44.9420 -63.4320 241° Southwest 34,000  Level FlightAware
10:50PM 44.9000 -63.5400 241° Southwest 499 574 34,000  Level FlightAware
10:51PM 44.8470 -63.6730 241° Southwest 499 574 34,000  Level FlightAware
10:51PM 44.8030 -63.7850 241° Southwest 497 572 34,000  Level FlightAware
10:52PM 44.7520 -63.9120 241° Southwest 497 572 34,000  Level FlightAware
10:53PM 44.7170 -63.9990 241° Southwest 498 573 34,000  Level FlightAware
10:54PM 44.6640 -64.1320 241° Southwest 496 571 34,000  Level FlightAware
10:54PM 44.6140 -64.2540 240° Southwest 497 572 34,000  Level FlightAware
10:55PM 44.5720 -64.3570 240° Southwest 497 572 34,000  Level FlightAware
10:56PM 44.5280 -64.4640 240° Southwest 498 573 34,000  Level FlightAware
10:56PM 44.4810 -64.5800 240° Southwest 498 573 34,000  Level FlightAware
10:57PM 44.4340 -64.6930 240° Southwest 501 577 34,000  Level FlightAware
10:58PM 44.3840 -64.8160 240° Southwest 502 578 34,000 60 Level FlightAware
10:58PM 44.3320 -64.9400 240° Southwest 503 579 34,100 60 Climbing FlightAware
10:59PM 44.2850 -65.0540 240° Southwest 504 580 34,100 -120 Level FlightAware
11:00PM 44.2380 -65.1670 240° Southwest 502 578 34,000 -120 Descending FlightAware
11:00PM 44.1960 -65.2670 240° Southwest 502 578 34,000  Level FlightAware
11:01PM 44.1490 -65.3770 239° Southwest 501 577 34,000  Level FlightAware
11:02PM 44.0970 -65.5000 240° Southwest 496 571 34,000  Level FlightAware
11:02PM 44.0570 -65.5950 240° Southwest 501 577 34,000  Level FlightAware
11:03PM 44.0030 -65.7240 240° Southwest 502 578 34,000  Level FlightAware
11:04PM 43.9550 -65.8340 239° Southwest 503 579 34,000  Level FlightAware
11:04PM 43.9190 -65.9190 240° Southwest 503 579 34,000  Level FlightAware
11:05PM 43.8650 -66.0440 239° Southwest 504 580 34,000  Level FlightAware
11:06PM 43.8110 -66.1690 239° Southwest 504 580 34,000  Level FlightAware
11:06PM 43.7620 -66.2810 239° Southwest 505 581 34,000  Level FlightAware
11:07PM 43.7140 -66.3920 239° Southwest 505 581 34,000  Level FlightAware
11:08PM 43.6590 -66.5160 239° Southwest 503 579 34,000  Level FlightAware
11:08PM 43.6100 -66.6280 239° Southwest 502 578 34,000  Level FlightAware
11:09PM 43.5690 -66.7230 239° Southwest 498 573 34,000  Level FlightAware
11:10PM 43.5140 -66.8460 238° Southwest 497 572 34,000  Level FlightAware
11:10PM 43.4640 -66.9570 238° Southwest 497 572 34,000  Level FlightAware
11:11PM 43.4160 -67.0650 239° Southwest 496 571 34,000  Level FlightAware
11:12PM 43.3610 -67.1890 239° Southwest 496 571 34,000  Level FlightAware
11:13PM 43.3060 -67.3110 238° Southwest 498 573 34,000  Level FlightAware
11:13PM 43.2620 -67.4070 238° Southwest 498 573 34,000  Level FlightAware
11:14PM 43.2070 -67.5290 238° Southwest 498 573 34,000  Level FlightAware
11:14PM 43.1690 -67.6140 239° Southwest 499 574 34,000  Level FlightAware
11:15PM 43.1130 -67.7360 238° Southwest 499 574 34,000  Level FlightAware
11:16PM 43.0640 -67.8430 238° Southwest 505 581 34,000  Level FlightAware
11:16PM 43.0180 -67.9420 238° Southwest 505 581 34,000  Level FlightAware
11:17PM 42.9770 -68.0280 237° Southwest 505 581 34,000  Level FlightAware
11:18PM 42.9250 -68.1380 237° Southwest 505 581 34,000  Level FlightAware
11:18PM 42.8860 -68.2190 237° Southwest 505 581 34,000  Level FlightAware
11:19PM 42.8480 -68.3010 238° Southwest 505 581 34,000  Level FlightAware
11:20PM 42.7960 -68.4100 237° Southwest 505 581 34,000  Level FlightAware
11:20PM 42.7540 -68.4960 236° Southwest 505 581 34,000  Level FlightAware
11:21PM 42.6540 -68.7220 239° Southwest 506 582 34,000  Level FlightAware
11:22PM 42.6030 -68.8290 237° Southwest 506 582 34,000  Level FlightAware
11:23PM 42.5550 -68.9350 238° Southwest 507 583 34,000  Level FlightAware
11:23PM 42.5170 -69.0260 240° Southwest 507 583 34,000  Level FlightAware
11:24PM 42.4610 -69.1530 239° Southwest 508 585 34,000  Level FlightAware
11:25PM 42.4060 -69.2820 240° Southwest 509 586 34,000  Level FlightAware
11:25PM 42.3590 -69.3890 239° Southwest 510 587 34,000  Level FlightAware
11:26PM 42.3110 -69.5010 240° Southwest 510 587 34,000  Level FlightAware
11:27PM 42.2560 -69.6260 239° Southwest 507 583 34,000  Level FlightAware
11:27PM 42.2080 -69.7340 239° Southwest 506 582 34,000  Level FlightAware
11:28PM 42.1530 -69.8580 239° Southwest 504 580 34,000  Level FlightAware
11:29PM 42.1050 -69.9650 239° Southwest 507 583 34,000  Level FlightAware
11:30PM 42.0580 -70.0710 239° Southwest 502 578 34,000  Level FlightAware
11:30PM 42.0140 -70.1690 239° Southwest 505 581 34,000  Level FlightAware
11:31PM 41.9550 -70.3010 239° Southwest 503 579 34,000  Level FlightAware
11:32PM 41.9110 -70.3990 239° Southwest 503 579 34,000  Level FlightAware
11:32PM 41.8630 -70.5040 238° Southwest 504 580 34,000  Level FlightAware
11:33PM 41.8140 -70.6120 239° Southwest 505 581 34,000 60 Level FlightAware
11:34PM 41.7550 -70.7400 238° Southwest 506 582 34,100  Climbing FlightAware
11:35PM 41.6930 -70.8790 239° Southwest 507 583 34,000 -120 Descending FlightAware
11:35PM 41.6450 -71.0030 243° Southwest 503 579 34,000  Level FlightAware
11:36PM 41.5970 -71.1260 242° Southwest 502 578 34,000  Level FlightAware
11:37PM 41.5540 -71.2370 243° Southwest 503 579 34,000  Level FlightAware
11:37PM 41.5170 -71.3310 242° Southwest 502 578 34,000  Level FlightAware
11:38PM 41.4730 -71.4420 242° Southwest 503 579 34,000  Level FlightAware
11:39PM 41.4240 -71.5660 242° Southwest 503 579 34,000  Level FlightAware
11:39PM 41.3860 -71.6630 242° Southwest 502 578 34,000  Level FlightAware
11:40PM 41.3510 -71.7550 243° Southwest 502 578 34,000  Level FlightAware
11:41PM 41.2770 -71.9390 242° Southwest 504 580 34,000  Level FlightAware
11:41PM 41.2518 -71.9972 240° Southwest 510 587 34,000  Level FlightAware ADS-B
11:42PM 41.2180 -72.0810 242° Southwest 510 587 34,000  Level FlightAware
11:42PM 41.1750 -72.1870 242° Southwest 511 588 34,000  Level FlightAware
11:43PM 41.1584 -72.2284 242° Southwest 512 589 34,000  Level FlightAware ADS-B
11:43PM 41.1237 -72.3130 241° Southwest 512 589 34,000  Level FlightAware ADS-B
11:44PM 41.0901 -72.3955 242° Southwest 512 589 34,000  Level FlightAware ADS-B
11:44PM 41.0545 -72.4822 241° Southwest 511 588 34,000  Level FlightAware ADS-B
11:45PM 41.0200 -72.5657 241° Southwest 509 586 34,000  Level FlightAware ADS-B
11:45PM 40.9860 -72.6487 242° Southwest 509 586 34,000  Level FlightAware ADS-B
11:46PM 40.9521 -72.7321 242° Southwest 508 585 34,000  Level FlightAware ADS-B
11:46PM 40.9184 -72.8141 241° Southwest 507 583 34,000  Level FlightAware ADS-B
11:47PM 40.8837 -72.8962 241° Southwest 508 585 34,000  Level FlightAware ADS-B
11:47PM 40.8490 -72.9798 241° Southwest 509 586 34,000  Level FlightAware ADS-B
11:48PM 40.8142 -73.0634 241° Southwest 510 587 34,000  Level FlightAware ADS-B
11:48PM 40.7883 -73.1260 241° Southwest 509 586 34,000  Level FlightAware ADS-B
11:48PM 40.7783 -73.1539 245° Southwest 511 588 34,000  Level FlightAware ADS-B
11:49PM 40.7562 -73.2430 252° West 512 589 34,000  Level FlightAware ADS-B
11:49PM 40.7342 -73.3329 252° West 513 590 34,000 60 Level FlightAware ADS-B
11:50PM 40.7126 -73.4211 252° West 513 590 34,100 60 Climbing FlightAware ADS-B
11:50PM 40.6906 -73.5097 252° West 511 588 34,100 -120 Level FlightAware ADS-B
11:51PM 40.6686 -73.5990 252° West 508 585 34,000 -120 Descending FlightAware ADS-B
11:51PM 40.6465 -73.6876 252° West 504 580 34,000  Level FlightAware ADS-B
11:52PM 40.6250 -73.7746 252° West 503 579 34,000  Level FlightAware ADS-B
11:52PM 40.6032 -73.8606 252° West 501 577 34,000  Level FlightAware ADS-B
11:53PM 40.5801 -73.9538 252° West 501 577 34,000  Level FlightAware ADS-B
11:53PM 40.5581 -74.0410 252° West 504 580 34,000  Level FlightAware ADS-B
11:54PM 40.5361 -74.1274 252° West 506 582 34,000  Level FlightAware ADS-B
11:55PM 40.5114 -74.2250 252° West 507 583 34,000  Level FlightAware ADS-B
11:55PM 40.4887 -74.3141 252° West 509 586 34,000  Level FlightAware ADS-B
11:56PM 40.4664 -74.4012 251° West 510 587 34,000 60 Level FlightAware ADS-B
11:56PM 40.4433 -74.4910 251° West 512 589 34,100  Climbing FlightAware ADS-B
11:57PM 40.4202 -74.5809 251° West 513 590 34,000 -120 Descending FlightAware ADS-B
11:57PM 40.3947 -74.6801 251° West 512 589 34,000  Level FlightAware ADS-B
11:58PM 40.3710 -74.7716 251° West 509 586 34,000  Level FlightAware ADS-B
11:58PM 40.3462 -74.8658 251° West 508 585 34,000 -120 Level FlightAware ADS-B
11:59PM 40.3222 -74.9575 251° West 508 585 33,900  Descending FlightAware ADS-B
11:59PM 40.2994 -75.0447 251° West 510 587 34,000 60 Climbing FlightAware ADS-B
12:00AM 40.2761 -75.1329 251° West 515 593 34,000  Level FlightAware ADS-B
12:00AM 40.2618 -75.1822 249° West 518 596 34,000  Level FlightAware ADS-B
12:00AM 40.2523 -75.2059 242° Southwest 520 598 34,000  Level FlightAware ADS-B
12:00AM 40.2374 -75.2349 236° Southwest 521 600 34,000 120 Level FlightAware ADS-B
12:01AM 40.1923 -75.3089 231° Southwest 523 602 34,100 60 Climbing FlightAware ADS-B
12:01AM 40.1456 -75.3868 232° Southwest 525 604 34,100 -120 Level FlightAware ADS-B
12:02AM 40.1006 -75.4610 232° Southwest 524 603 34,000 -120 Descending FlightAware ADS-B
12:02AM 40.0550 -75.5356 231° Southwest 523 602 34,000  Level FlightAware ADS-B
12:03AM 40.0096 -75.6102 232° Southwest 521 600 34,000  Level FlightAware ADS-B
12:03AM 39.9641 -75.6845 231° Southwest 521 600 34,000  Level FlightAware ADS-B
12:04AM 39.9185 -75.7592 231° Southwest 520 598 34,000  Level FlightAware ADS-B
12:04AM 39.8726 -75.8335 231° Southwest 519 597 34,000  Level FlightAware ADS-B
12:05AM 39.8258 -75.9095 231° Southwest 519 597 34,000  Level FlightAware ADS-B
12:05AM 39.7803 -75.9830 231° Southwest 518 596 34,000  Level FlightAware ADS-B
12:06AM 39.7350 -76.0560 231° Southwest 519 597 34,000  Level FlightAware ADS-B
12:06AM 39.6881 -76.1313 231° Southwest 519 597 34,000  Level FlightAware ADS-B
12:07AM 39.6417 -76.2056 231° Southwest 518 596 34,000  Level FlightAware ADS-B
12:08AM 39.5959 -76.2788 231° Southwest 519 597 34,000  Level FlightAware ADS-B
12:08AM 39.5496 -76.3530 231° Southwest 518 596 34,000  Level FlightAware ADS-B
12:09AM 39.5046 -76.4250 231° Southwest 518 596 34,000  Level FlightAware ADS-B
12:09AM 39.4595 -76.4973 231° Southwest 518 596 34,000  Level FlightAware ADS-B
12:10AM 39.4136 -76.5694 231° Southwest 517 595 34,000  Level FlightAware ADS-B
12:10AM 39.3680 -76.6417 231° Southwest 518 596 34,000  Level FlightAware ADS-B
12:11AM 39.3223 -76.7139 231° Southwest 518 596 34,000  Level FlightAware ADS-B
12:11AM 39.2766 -76.7860 231° Southwest 516 594 34,000  Level FlightAware ADS-B
12:12AM 39.2305 -76.8588 231° Southwest 515 593 34,000  Level FlightAware ADS-B
12:12AM 39.1846 -76.9311 231° Southwest 515 593 34,000  Level FlightAware ADS-B
12:13AM 39.1390 -77.0025 231° Southwest 515 593 34,000  Level FlightAware ADS-B
12:13AM 39.0933 -77.0737 230° Southwest 513 590 34,000  Level FlightAware ADS-B
12:14AM 39.0473 -77.1453 230° Southwest 513 590 34,000  Level FlightAware ADS-B
12:14AM 39.0015 -77.2167 230° Southwest 512 589 34,000  Level FlightAware ADS-B
12:15AM 38.9560 -77.2876 230° Southwest 512 589 34,000  Level FlightAware ADS-B
12:15AM 38.9106 -77.3578 230° Southwest 510 587 34,000  Level FlightAware ADS-B
12:16AM 38.8650 -77.4282 230° Southwest 510 587 34,000  Level FlightAware ADS-B
12:16AM 38.8185 -77.5000 230° Southwest 511 588 34,000  Level FlightAware ADS-B
12:17AM 38.7726 -77.5702 230° Southwest 510 587 34,000  Level FlightAware ADS-B
12:17AM 38.7275 -77.6395 230° Southwest 511 588 34,000  Level FlightAware ADS-B
12:18AM 38.6694 -77.7285 230° Southwest 512 589 34,000  Level FlightAware ADS-B
12:18AM 38.6197 -77.8041 230° Southwest 511 588 34,000  Level FlightAware ADS-B
12:19AM 38.5739 -77.8742 230° Southwest 511 588 34,000  Level FlightAware ADS-B
12:20AM 38.4870 -78.0060 230° Southwest 513 590 34,000  Level FlightAware
12:20AM 38.4748 -78.0246 230° Southwest 513 590 34,000  Level FlightAware ADS-B
12:20AM 38.4285 -78.0946 230° Southwest 512 589 34,000  Level FlightAware ADS-B
12:21AM 38.3640 -78.1910 230° Southwest 510 587 34,000  Level FlightAware
12:21AM 38.3420 -78.2247 230° Southwest 509 586 34,000  Level FlightAware ADS-B
12:22AM 38.2946 -78.2965 230° Southwest 508 585 34,000  Level FlightAware ADS-B
12:22AM 38.2380 -78.3820 230° Southwest 506 582 34,000  Level FlightAware
12:23AM 38.1770 -78.4720 229° Southwest 505 581 34,000  Level FlightAware
12:24AM 38.1100 -78.5720 230° Southwest 504 580 34,000  Level FlightAware
12:25AM 38.0490 -78.6630 230° Southwest 504 580 34,000  Level FlightAware
12:25AM 37.9810 -78.7630 229° Southwest 507 583 34,000  Level FlightAware
12:26AM 37.9270 -78.8440 230° Southwest 510 587 34,000 60 Level FlightAware
12:27AM 37.8650 -78.9360 230° Southwest 512 589 34,100  Climbing FlightAware
12:27AM 37.8020 -79.0280 229° Southwest 511 588 34,000 -120 Descending FlightAware
12:28AM 37.7400 -79.1190 229° Southwest 507 583 34,000  Level FlightAware
12:29AM 37.6800 -79.2070 229° Southwest 505 581 34,000  Level FlightAware
12:29AM 37.6170 -79.2980 229° Southwest 503 579 34,000  Level FlightAware
12:30AM 37.5560 -79.3880 229° Southwest 502 578 34,000  Level FlightAware
12:31AM 37.4900 -79.4830 229° Southwest 506 582 34,000  Level FlightAware
12:31AM 37.4260 -79.5740 228° Southwest 507 583 34,000 60 Level FlightAware
12:32AM 37.3570 -79.6740 229° Southwest 510 587 34,100 60 Climbing FlightAware
12:33AM 37.3110 -79.7400 229° Southwest 510 587 34,100 -120 Level FlightAware
12:33AM 37.2300 -79.8570 229° Southwest 511 588 34,000 -120 Descending FlightAware
12:34AM 37.1600 -79.9560 228° Southwest 512 589 34,000  Level FlightAware
12:35AM 37.0860 -80.0610 229° Southwest 512 589 34,000  Level FlightAware
12:36AM 36.9750 -80.2200 229° Southwest 510 587 34,000  Level FlightAware
12:37AM 36.9250 -80.2890 228° Southwest 510 587 34,000  Level FlightAware
12:38AM 36.8390 -80.4120 229° Southwest 507 583 34,000  Level FlightAware
12:38AM 36.7850 -80.4860 228° Southwest 507 583 34,000  Level FlightAware
12:39AM 36.7200 -80.5770 228° Southwest 507 583 34,000  Level FlightAware
12:40AM 36.6720 -80.6440 228° Southwest 507 583 34,000  Level FlightAware
12:40AM 36.6240 -80.7100 228° Southwest 507 583 34,000  Level FlightAware
12:41AM 36.5750 -80.7780 228° Southwest 507 583 34,000  Level FlightAware
12:42AM 36.4464 -80.9595 229° Southwest 517 595 34,000  Level FlightAware ADS-B
12:42AM 36.3920 -81.0347 228° Southwest 518 596 34,000 60 Level FlightAware ADS-B
12:43AM 36.3424 -81.1030 228° Southwest 519 597 34,100 60 Climbing FlightAware ADS-B
12:43AM 36.2808 -81.1881 228° Southwest 519 597 34,100 -60 Level FlightAware ADS-B
12:46AM 36.0340 -81.5260 228° Southwest 511 588 34,000 -60 Descending FlightAware
12:46AM 35.9876 -81.5884 227° Southwest 514 592 34,000  Level FlightAware ADS-B
12:47AM 35.9388 -81.6537 227° Southwest 515 593 34,000  Level FlightAware ADS-B
12:47AM 35.8884 -81.7220 228° Southwest 517 595 34,000 60 Level FlightAware ADS-B
12:48AM 35.8396 -81.7884 228° Southwest 517 595 34,100 60 Climbing FlightAware ADS-B
12:49AM 35.7830 -81.8651 228° Southwest 517 595 34,100 -120 Level FlightAware ADS-B
12:49AM 35.7247 -81.9437 228° Southwest 517 595 34,000 -120 Descending FlightAware ADS-B
12:50AM 35.6743 -82.0067 225° Southwest 518 596 34,000  Level FlightAware ADS-B
12:50AM 35.6199 -82.0722 224° Southwest 517 595 34,000  Level FlightAware ADS-B
12:51AM 35.5686 -82.1352 225° Southwest 517 595 34,000  Level FlightAware ADS-B
12:51AM 35.5167 -82.1985 225° Southwest 517 595 34,000  Level FlightAware ADS-B
12:52AM 35.4656 -82.2617 225° Southwest 516 594 34,000  Level FlightAware ADS-B
12:52AM 35.4127 -82.3260 225° Southwest 515 593 34,000  Level FlightAware ADS-B
12:53AM 35.3608 -82.3896 225° Southwest 516 594 34,000  Level FlightAware ADS-B
12:53AM 35.3054 -82.4574 225° Southwest 515 593 34,000  Level FlightAware ADS-B
12:54AM 35.2534 -82.5209 225° Southwest 515 593 34,000  Level FlightAware ADS-B
12:54AM 35.2009 -82.5846 225° Southwest 513 590 34,000  Level FlightAware ADS-B
12:55AM 35.1380 -82.6606 225° Southwest 511 588 34,000  Level FlightAware ADS-B
12:55AM 35.0857 -82.7240 225° Southwest 508 585 34,000 -480 Level FlightAware ADS-B
12:56AM 35.0350 -82.7849 225° Southwest 493 567 33,500 -1,020 Descending FlightAware ADS-B
12:57AM 34.9865 -82.8438 225° Southwest 489 563 33,000 -1,200 Descending FlightAware ADS-B
12:57AM 34.9357 -82.9042 224° Southwest 489 563 32,300 -1,380 Descending FlightAware ADS-B
12:58AM 34.8871 -82.9622 224° Southwest 487 560 31,600 -1,740 Descending FlightAware ADS-B
12:58AM 34.8393 -83.0194 224° Southwest 478 550 30,600 -2,040 Descending FlightAware ADS-B
12:59AM 34.7918 -83.0764 225° Southwest 471 542 29,600 -2,100 Descending FlightAware ADS-B
12:59AM 34.7456 -83.1319 225° Southwest 465 535 28,500 -2,280 Descending FlightAware ADS-B
01:00AM 34.6976 -83.1886 224° Southwest 460 529 27,300 -2,100 Descending FlightAware ADS-B
01:00AM 34.6519 -83.2419 224° Southwest 452 520 26,400 -1,800 Descending FlightAware ADS-B
01:01AM 34.6071 -83.2962 225° Southwest 443 510 25,500 -1,800 Descending FlightAware ADS-B
01:01AM 34.5565 -83.3570 225° Southwest 433 498 24,400 -1,920 Descending FlightAware ADS-B
01:02AM 34.4991 -83.4242 224° Southwest 431 496 23,100 -1,800 Descending FlightAware ADS-B
01:02AM 34.4571 -83.4729 224° Southwest 418 481 22,300 -1,740 Descending FlightAware ADS-B
01:03AM 34.4159 -83.5218 224° Southwest 409 471 21,400 -1,740 Descending FlightAware ADS-B
01:04AM 34.3464 -83.6039 224° Southwest 396 456 19,900 -1,740 Descending FlightAware ADS-B
01:04AM 34.2989 -83.6599 224° Southwest 393 452 18,800 -1,740 Descending FlightAware ADS-B
01:05AM 34.2280 -83.7420 224° Southwest 376 433 17,200 -1,680 Descending FlightAware
01:06AM 34.1780 -83.8020 225° Southwest 368 423 16,100 -1,440 Descending FlightAware
01:07AM 34.1280 -83.8600 224° Southwest 365 420 15,300 -1,440 Descending FlightAware
01:07AM 34.0940 -83.9200 236° Southwest 363 418 14,300 -1,500 Descending FlightAware
01:08AM 34.0600 -83.9880 239° Southwest 348 400 13,400 -1,620 Descending FlightAware
01:09AM 34.0240 -84.0590 239° Southwest 347 399 12,100 -1,500 Descending FlightAware
01:09AM 33.9920 -84.1240 239° Southwest 339 390 11,300 -1,020 Descending FlightAware
01:10AM 33.9590 -84.1930 240° Southwest 312 359 10,700 -600 Descending FlightAware
01:10AM 33.9450 -84.2230 241° Southwest 306 352 10,700 -900 Level FlightAware
01:11AM 33.9140 -84.2860 239° Southwest 303 349 9,800 -1,260 Descending FlightAware
01:12AM 33.8950 -84.3280 241° Southwest 298 343 9,200 -1,320 Descending FlightAware
01:12AM 33.8780 -84.3670 242° Southwest 292 336 8,600 -1,440 Descending FlightAware
01:13AM 33.8600 -84.4060 241° Southwest 289 333 7,900 -1,620 Descending FlightAware
01:13AM 33.8510 -84.4260 242° Southwest 292 336 7,500 -1,620 Descending FlightAware
01:13AM 33.8340 -84.4650 242° Southwest 290 334 6,800 -1,380 Descending FlightAware
01:14AM 33.8240 -84.4870 241° Southwest 288 331 6,500 -1,380 Descending FlightAware
01:14AM 33.8060 -84.5270 242° Southwest 284 327 5,800 -1,380 Descending FlightAware
01:14AM 33.7990 -84.5430 242° Southwest 284 327 5,600 -900 Descending FlightAware
01:15AM 33.7830 -84.5800 243° Southwest 270 311 5,200 -960 Descending FlightAware
01:15AM 33.7710 -84.6090 244° Southwest 267 307 4,800 -1,440 Descending FlightAware
01:16AM 33.7530 -84.6480 241° Southwest 264 304 4,000 -1,620 Descending FlightAware
01:16AM 33.7450 -84.6620 236° Southwest 254 292 3,700 -1,260 Descending FlightAware
01:16AM 33.7330 -84.6710 212° Southwest 234 269 3,500 -900 Descending FlightAware
01:16AM 33.7180 -84.6730 186° South 219 252 3,300 -960 Descending FlightAware
01:16AM 33.7020 -84.6730 180° South 213 245 3,000 -900 Descending FlightAware
01:17AM 33.6790 -84.6740 182° South 199 229 2,700 -480 Descending FlightAware
01:17AM 33.6660 -84.6750 184° South 187 215 2,700  Level FlightAware
01:18AM 33.6490 -84.6580 140° Southeast 169 194 2,700  Level FlightAware
01:18AM 33.6430 -84.6310 105° East 172 198 2,700  Level FlightAware
01:18AM 33.6400 -84.6190 107° East 171 197 2,700  Level FlightAware
01:19AM 33.6350 -84.5930 103° East 170 196 2,700  Level FlightAware
01:19AM 33.6350 -84.5780 90° East 165 190 2,700 -360 Level FlightAware
01:19AM 33.6350 -84.5580 90° East 151 174 2,500 -600 Descending FlightAware
01:20AM 33.6350 -84.5330 90° East 149 171 2,200 -780 Descending FlightAware
01:20AM 33.6350 -84.5140 90° East 141 162 1,800 -840 Descending FlightAware
01:21AM 33.6350 -84.4920 90° East 147 169 1,500 -840 Descending FlightAware
01:21AM 33.6350 -84.4760 90° East 152 175 1,200 -840 Descending FlightAware
01:21AM 33.6350 -84.4520 90° East 154 177 900 -660 Descending FlightAware
01:22AM 33.6350 -84.4250 90° East 57 66 -1,440 Descending FlightAware
01:22AM 33.6350 -84.4220 90° East 32 37  Level FlightAware
01:23AM 33.6340 -84.4220 180° South 18 21  Level FlightAware
01:23AM 33.6340 -84.4220 180° South 26 30  Level FlightAware
01:24AM 33.6340 -84.4230 270° West 28 32  Level FlightAware
01:24AM 33.6330 -84.4230 180° South 29 33  Level FlightAware
01:24AM 33.6330 -84.4240 270° West 33 38  Level FlightAware
01:24AM 33.6320 -84.4250 220° Southwest 30 35  Level FlightAware
01:25AM 33.6320 -84.4260 270° West 22 25  Level FlightAware
01:26AM 33.6300 -84.4270 203° Southwest 34 39  Level FlightAware
01:26AM 33.6290 -84.4290 239° Southwest 26 30  Level FlightAware
01:27AM 33.6280 -84.4290 180° South 30 35  Level FlightAware
01:27AM 33.6260 -84.4290 180° South 15 17  Level FlightAware
01:30AM 33.6333 -84.4167 95° East  Level FlightAware Approximate